createdAt,value
2022-08-04T00:02:27.282Z,5.63
2022-08-04T00:05:00.484Z,5.93
2022-08-04T00:07:48.343Z,5.40
2022-08-04T00:10:18.833Z,5.70
2022-08-04T00:12:50.055Z,5.15
2022-08-04T00:15:17.978Z,5.28
2022-08-04T00:18:04.476Z,5.00
2022-08-04T00:20:33.988Z,4.95
2022-08-04T00:23:02.291Z,4.82
2022-08-04T00:25:29.117Z,4.82
2022-08-04T00:27:56.225Z,4.97
2022-08-04T00:30:22.915Z,4.75
2022-08-04T00:32:49.625Z,4.57
2022-08-04T00:35:17.665Z,5.05
2022-08-04T00:37:45.619Z,4.65
2022-08-04T00:40:12.632Z,4.75
2022-08-04T00:42:59.337Z,4.95
2022-08-04T00:46:15.885Z,5.15
2022-08-04T00:48:54.578Z,5.57
2022-08-04T00:51:30.227Z,4.60
2022-08-04T00:54:11.787Z,4.97
2022-08-04T00:57:30.045Z,4.80
2022-08-04T01:00:03.959Z,4.47
2022-08-04T01:02:48.091Z,5.10
2022-08-04T01:05:37.864Z,4.85
2022-08-04T01:08:23.394Z,4.75
2022-08-04T01:11:08.216Z,5.25
2022-08-04T01:14:00.795Z,4.35
2022-08-04T01:16:28.856Z,5.15
2022-08-04T01:19:35.219Z,5.43
2022-08-04T01:22:18.783Z,5.65
2022-08-04T01:24:59.494Z,4.05
2022-08-04T01:28:05.187Z,4.50
2022-08-04T01:30:34.606Z,5.03
2022-08-04T01:33:04.922Z,4.68
2022-08-04T01:35:48.877Z,4.43
2022-08-04T01:38:26.151Z,4.63
2022-08-04T01:40:56.908Z,5.13
2022-08-04T01:43:24.525Z,4.43
2022-08-04T01:45:58.050Z,4.05
2022-08-04T01:48:26.120Z,4.65
2022-08-04T01:50:54.368Z,4.13
2022-08-04T01:53:21.479Z,4.82
2022-08-04T01:55:55.598Z,4.80
2022-08-04T02:01:08.946Z,3.67
2022-08-04T02:04:20.426Z,3.88
2022-08-04T02:07:03.800Z,3.53
2022-08-04T02:09:54.986Z,3.92
2022-08-04T02:12:26.082Z,3.92
2022-08-04T02:15:22.348Z,3.42
2022-08-04T02:17:57.262Z,3.13
2022-08-04T02:20:29.135Z,3.50
2022-08-04T02:23:43.151Z,3.45
2022-08-04T02:26:22.612Z,3.72
2022-08-04T02:29:03.765Z,3.20
2022-08-04T02:31:43.258Z,5.00
2022-08-04T02:34:13.877Z,5.20
2022-08-04T02:36:41.691Z,3.45
2022-08-04T02:39:09.869Z,3.20
2022-08-04T02:41:40.016Z,5.05
2022-08-04T02:44:10.350Z,8.43
2022-08-04T02:46:39.083Z,9.20
2022-08-04T02:49:07.862Z,5.15
2022-08-04T02:51:36.735Z,4.38
2022-08-04T02:54:06.790Z,10.02
2022-08-04T02:56:38.632Z,4.88
2022-08-04T02:59:08.260Z,4.10
2022-08-04T03:01:35.293Z,3.35
2022-08-04T03:04:28.797Z,3.60
2022-08-04T03:07:16.727Z,3.83
2022-08-04T03:10:14.480Z,3.25
2022-08-04T03:13:02.740Z,2.72
2022-08-04T03:16:08.226Z,3.00
2022-08-04T03:18:46.832Z,3.28
2022-08-04T03:21:19.328Z,3.25
2022-08-04T03:24:10.374Z,5.03
2022-08-04T03:26:48.989Z,5.13
2022-08-04T03:29:37.614Z,4.90
2022-08-04T03:32:31.939Z,4.70
2022-08-04T03:35:40.380Z,3.60
2022-08-04T03:38:45.155Z,3.15
2022-08-04T03:41:51.325Z,3.35
2022-08-04T03:44:20.864Z,3.00
2022-08-04T03:46:56.441Z,3.90
2022-08-04T03:49:35.065Z,3.10
2022-08-04T03:52:34.712Z,3.22
2022-08-04T03:55:25.403Z,4.15
2022-08-04T03:58:31.868Z,4.45
2022-08-04T04:02:01.133Z,3.63
2022-08-04T04:04:30.622Z,4.40
2022-08-04T04:07:12.383Z,3.50
2022-08-04T04:10:05.864Z,4.00
2022-08-04T04:12:41.738Z,2.42
2022-08-04T04:15:35.494Z,3.85
2022-08-04T04:18:33.760Z,3.85
2022-08-04T04:21:35.542Z,3.20
2022-08-04T04:24:32.846Z,3.67
2022-08-04T04:27:27.822Z,3.53
2022-08-04T04:30:19.170Z,3.65
2022-08-04T04:33:34.923Z,3.90
2022-08-04T04:36:25.279Z,3.97
2022-08-04T04:39:03.323Z,3.25
2022-08-04T04:41:41.626Z,2.85
2022-08-04T04:44:08.082Z,4.47
2022-08-04T04:47:06.914Z,5.00
2022-08-04T04:49:44.916Z,4.30
2022-08-04T04:52:27.213Z,4.70
2022-08-04T04:55:21.790Z,4.43
2022-08-04T04:57:54.770Z,5.38
2022-08-04T05:00:26.340Z,4.40
2022-08-04T05:03:00.405Z,3.58
2022-08-04T05:05:48.691Z,3.20
2022-08-04T05:08:45.317Z,3.55
2022-08-04T05:11:32.379Z,3.35
2022-08-04T05:14:36.506Z,3.40
2022-08-04T05:17:15.867Z,3.35
2022-08-04T05:20:04.438Z,3.75
2022-08-04T05:22:39.456Z,3.42
2022-08-04T05:25:17.687Z,4.18
2022-08-04T05:27:56.291Z,4.00
2022-08-04T05:30:27.275Z,4.72
2022-08-04T05:33:00.992Z,4.32
2022-08-04T05:35:53.988Z,4.90
2022-08-04T05:38:25.068Z,5.07
2022-08-04T05:40:52.897Z,5.70
2022-08-04T05:43:22.647Z,5.60
2022-08-04T05:45:51.578Z,5.93
2022-08-04T05:48:18.854Z,6.72
2022-08-04T05:50:46.559Z,5.85
2022-08-04T05:53:16.741Z,5.93
2022-08-04T05:55:49.033Z,5.60
2022-08-04T05:58:29.544Z,6.18
2022-08-04T06:00:58.387Z,6.70
2022-08-04T06:03:29.008Z,6.70
2022-08-04T06:05:57.693Z,7.10
2022-08-04T06:08:25.099Z,8.05
2022-08-04T06:10:54.555Z,7.28
2022-08-04T06:13:48.150Z,7.70
2022-08-04T06:16:30.311Z,8.15
2022-08-04T06:19:59.592Z,8.50
2022-08-04T06:21:50.000Z,7.82
2022-08-04T06:24:20.493Z,10.10
2022-08-04T06:26:49.543Z,10.77
2022-08-04T06:29:26.996Z,12.43
2022-08-04T06:32:27.210Z,11.45
2022-08-04T06:34:50.959Z,11.40
2022-08-04T06:37:41.215Z,12.98
2022-08-04T06:40:31.512Z,15.10
2022-08-04T06:42:56.121Z,15.48
2022-08-04T06:45:24.144Z,17.33
2022-08-04T06:47:51.112Z,19.83
2022-08-04T06:51:25.476Z,18.50
2022-08-04T06:53:06.898Z,22.65
2022-08-04T06:55:35.131Z,22.88
2022-08-04T06:58:03.536Z,27.80
2022-08-04T07:00:32.328Z,29.10
2022-08-04T07:03:00.919Z,29.88
2022-08-04T07:05:28.368Z,26.45
2022-08-04T07:07:57.096Z,24.20
2022-08-04T07:10:27.745Z,25.10
2022-08-04T07:12:56.615Z,27.88
2022-08-04T07:15:23.666Z,23.70
2022-08-04T07:17:52.292Z,25.20
2022-08-04T07:20:34.477Z,27.92
2022-08-04T07:23:04.128Z,23.55
2022-08-04T07:26:00.107Z,28.20
2022-08-04T07:28:17.806Z,26.17
2022-08-04T07:30:45.581Z,30.30
2022-08-04T07:33:12.599Z,24.35
2022-08-04T07:36:03.744Z,27.33
2022-08-04T07:38:27.691Z,31.48
2022-08-04T07:40:55.535Z,31.10
2022-08-04T07:43:23.172Z,34.10
2022-08-04T07:45:50.025Z,35.80
2022-08-04T07:48:18.897Z,39.30
2022-08-04T07:50:46.879Z,42.72
2022-08-04T07:53:54.851Z,44.03
2022-08-04T07:56:02.772Z,41.90
2022-08-04T07:58:30.244Z,52.25
2022-08-04T08:00:58.046Z,54.70
2022-08-04T08:03:27.324Z,57.25
2022-08-04T08:05:54.721Z,60.45
2022-08-04T08:08:40.989Z,63.38
2022-08-04T08:11:09.357Z,58.22
2022-08-04T08:13:37.054Z,65.82
2022-08-04T08:16:05.374Z,72.38
2022-08-04T08:18:32.028Z,71.95
2022-08-04T08:20:58.685Z,66.57
2022-08-04T08:23:26.515Z,66.70
2022-08-04T08:25:54.326Z,98.80
2022-08-04T08:28:20.997Z,73.53
2022-08-04T08:30:52.604Z,99.45
2022-08-04T08:33:21.207Z,92.18
2022-08-04T08:35:53.782Z,73.35
2022-08-04T08:38:33.581Z,74.07
2022-08-04T08:41:27.759Z,89.47
2022-08-04T08:44:37.516Z,77.30
2022-08-04T08:47:30.502Z,72.88
2022-08-04T08:50:47.566Z,74.55
2022-08-04T08:53:31.202Z,78.80
2022-08-04T08:56:30.941Z,84.70
2022-08-04T08:59:15.079Z,96.32
2022-08-04T09:01:57.322Z,99.70
2022-08-04T09:04:51.863Z,106.30
2022-08-04T09:07:30.455Z,109.35
2022-08-04T09:10:16.282Z,126.75
2022-08-04T09:12:57.890Z,135.70
2022-08-04T09:15:39.749Z,126.28
2022-08-04T09:18:31.346Z,134.63
2022-08-04T09:21:30.771Z,145.95
2022-08-04T09:24:05.044Z,162.25
2022-08-04T09:29:45.743Z,145.43
2022-08-04T09:32:23.578Z,170.75
2022-08-04T09:35:20.431Z,152.68
2022-08-04T09:38:10.273Z,148.80
2022-08-04T09:40:58.851Z,154.00
2022-08-04T09:44:42.342Z,150.60
2022-08-04T09:46:27.844Z,134.35
2022-08-04T09:49:07.684Z,135.88
2022-08-04T09:51:59.027Z,133.52
2022-08-04T09:54:48.947Z,142.98
2022-08-04T09:57:15.500Z,151.35
2022-08-04T10:00:09.259Z,136.68
2022-08-04T10:02:44.365Z,121.22
2022-08-04T10:05:19.739Z,135.23
2022-08-04T10:08:16.423Z,142.82
2022-08-04T10:11:00.377Z,144.60
2022-08-04T10:13:53.361Z,138.02
2022-08-04T10:16:45.142Z,141.48
2022-08-04T10:19:35.311Z,131.68
2022-08-04T10:22:50.019Z,137.93
2022-08-04T10:26:06.251Z,148.65
2022-08-04T10:28:45.834Z,152.38
2022-08-04T10:31:20.858Z,154.38
2022-08-04T10:33:57.843Z,154.38
2022-08-04T10:36:30.327Z,168.23
2022-08-04T10:39:41.759Z,163.52
2022-08-04T10:42:03.500Z,162.40
2022-08-04T10:47:20.178Z,131.25
2022-08-04T10:49:54.377Z,133.68
2022-08-04T10:52:33.797Z,122.70
2022-08-04T10:56:07.777Z,155.73
2022-08-04T11:02:01.397Z,139.65
2022-08-04T11:04:35.556Z,130.35
2022-08-04T11:07:02.631Z,162.20
2022-08-04T11:09:31.674Z,168.50
2022-08-04T11:12:07.119Z,97.45
2022-08-04T11:14:36.798Z,181.27
2022-08-04T11:17:11.315Z,101.53
2022-08-04T11:19:53.285Z,137.48
2022-08-04T11:22:23.456Z,138.80
2022-08-04T11:25:03.233Z,100.93
2022-08-04T11:27:40.427Z,92.85
2022-08-04T11:30:08.961Z,89.97
2022-08-04T11:33:09.407Z,73.55
2022-08-04T11:35:44.563Z,81.07
2022-08-04T11:38:43.683Z,78.28
2022-08-04T11:41:18.706Z,51.30
2022-08-04T11:44:00.713Z,43.72
2022-08-04T11:46:44.097Z,47.45
2022-08-04T11:49:15.522Z,46.30
2022-08-04T11:51:44.538Z,50.35
2022-08-04T11:54:12.824Z,57.72
2022-08-04T11:56:39.688Z,54.95
2022-08-04T11:59:10.140Z,55.60
2022-08-04T12:01:44.432Z,42.83
2022-08-04T12:04:24.350Z,46.38
2022-08-04T12:07:33.052Z,46.58
2022-08-04T12:10:43.363Z,50.75
2022-08-04T12:13:31.716Z,51.17
2022-08-04T12:16:10.808Z,53.55
2022-08-04T12:18:47.300Z,44.15
2022-08-04T12:21:55.964Z,42.20
2022-08-04T12:24:33.547Z,47.47
2022-08-04T12:27:13.839Z,47.38
2022-08-04T12:29:41.560Z,47.83
2022-08-04T12:32:33.005Z,45.78
2022-08-04T12:35:21.822Z,44.40
2022-08-04T12:38:08.606Z,46.03
2022-08-04T12:40:46.976Z,43.67
2022-08-04T12:43:20.178Z,45.20
2022-08-04T12:48:21.436Z,105.18
2022-08-04T12:50:51.204Z,63.15
2022-08-04T12:53:31.519Z,44.05
2022-08-04T12:56:01.716Z,37.92
2022-08-04T12:58:42.046Z,35.53
2022-08-04T13:02:10.155Z,36.35
2022-08-04T13:04:29.297Z,34.92
2022-08-04T13:07:10.763Z,32.20
2022-08-04T13:09:38.424Z,36.47
2022-08-04T13:12:13.718Z,44.22
2022-08-04T13:14:44.482Z,35.17
2022-08-04T13:17:12.260Z,32.30
2022-08-04T13:19:41.439Z,31.40
2022-08-04T13:22:09.256Z,29.60
2022-08-04T13:24:56.681Z,27.40
2022-08-04T13:27:25.838Z,32.60
2022-08-04T13:29:58.745Z,28.83
2022-08-04T13:32:31.021Z,29.98
2022-08-04T13:35:00.363Z,30.10
2022-08-04T13:37:38.868Z,24.80
2022-08-04T13:40:09.270Z,23.67
2022-08-04T13:42:38.964Z,19.40
2022-08-04T13:45:08.362Z,18.50
2022-08-04T13:47:38.227Z,18.33
2022-08-04T13:50:13.813Z,19.65
2022-08-04T13:52:42.820Z,18.90
2022-08-04T13:55:19.910Z,17.80
2022-08-04T13:57:52.375Z,18.60
2022-08-04T14:00:29.911Z,18.33
2022-08-04T14:03:23.281Z,19.50
2022-08-04T14:08:58.710Z,18.75
2022-08-04T14:12:09.922Z,18.90
2022-08-04T14:14:30.000Z,21.20
2022-08-04T14:17:05.714Z,19.65
2022-08-04T14:20:07.246Z,20.80
2022-08-04T14:22:36.615Z,20.23
2022-08-04T14:25:16.738Z,20.50
2022-08-04T14:27:55.915Z,20.42
2022-08-04T14:30:36.936Z,20.00
2022-08-04T14:34:02.041Z,19.80
2022-08-04T14:36:04.133Z,20.15
2022-08-04T14:38:58.529Z,19.05
2022-08-04T14:41:31.530Z,19.92
2022-08-04T14:44:00.807Z,19.10
2022-08-04T14:46:36.279Z,18.95
2022-08-04T14:49:10.225Z,17.65
2022-08-04T14:51:59.014Z,16.70
2022-08-04T14:54:35.870Z,16.67
2022-08-04T14:57:06.466Z,16.08
2022-08-04T15:00:01.604Z,15.93
2022-08-04T15:02:30.515Z,16.52
2022-08-04T15:04:57.761Z,16.63
2022-08-04T15:07:24.797Z,17.38
2022-08-04T15:09:53.925Z,16.90
2022-08-04T15:12:21.206Z,16.45
2022-08-04T15:14:48.010Z,16.38
2022-08-04T15:17:29.202Z,16.52
2022-08-04T15:19:57.312Z,16.88
2022-08-04T15:22:24.071Z,18.50
2022-08-04T15:24:54.911Z,17.25
2022-08-04T15:27:26.612Z,16.13
2022-08-04T15:30:01.618Z,17.45
2022-08-04T15:32:32.062Z,16.58
2022-08-04T15:35:30.822Z,16.77
2022-08-04T15:38:24.058Z,17.17
2022-08-04T15:41:08.046Z,16.55
2022-08-04T15:43:40.436Z,16.50
2022-08-04T15:46:43.440Z,15.38
2022-08-04T15:48:56.085Z,17.70
2022-08-04T15:51:32.091Z,15.68
2022-08-04T15:54:03.483Z,17.05
2022-08-04T15:56:34.916Z,16.85
2022-08-04T15:59:01.455Z,16.98
2022-08-04T16:01:28.268Z,16.25
2022-08-04T16:03:59.894Z,16.58
2022-08-04T16:06:29.086Z,17.08
2022-08-04T16:09:04.124Z,18.75
2022-08-04T16:11:32.595Z,16.38
2022-08-04T16:13:59.632Z,16.65
2022-08-04T16:16:38.567Z,17.75
2022-08-04T16:19:35.329Z,17.48
2022-08-04T16:22:03.871Z,16.30
2022-08-04T16:24:36.235Z,15.88
2022-08-04T16:27:13.729Z,16.48
2022-08-04T16:29:47.925Z,16.20
2022-08-04T16:32:20.616Z,17.20
2022-08-04T16:34:55.477Z,16.77
2022-08-04T16:37:37.841Z,17.67
2022-08-04T16:40:39.003Z,17.90
2022-08-04T16:43:17.691Z,18.63
2022-08-04T16:45:47.110Z,21.00
2022-08-04T16:48:17.760Z,20.45
2022-08-04T16:51:06.442Z,21.17
2022-08-04T16:53:53.539Z,21.67
2022-08-04T16:56:29.588Z,21.38
2022-08-04T16:58:56.490Z,20.95
2022-08-04T17:01:33.787Z,19.90
2022-08-04T17:04:05.100Z,20.55
2022-08-04T17:06:40.234Z,20.80
2022-08-04T17:09:11.321Z,20.98
2022-08-04T17:11:38.117Z,21.90
2022-08-04T17:14:06.137Z,22.67
2022-08-04T17:16:38.311Z,20.45
2022-08-04T17:19:07.167Z,20.63
2022-08-04T17:21:52.429Z,20.48
2022-08-04T17:24:18.970Z,22.67
2022-08-04T17:26:54.527Z,25.83
2022-08-04T17:29:43.247Z,23.30
2022-08-04T17:32:20.799Z,21.95
2022-08-04T17:34:54.452Z,25.50
2022-08-04T17:37:41.208Z,37.53
2022-08-04T17:40:22.872Z,36.30
2022-08-04T17:44:02.979Z,45.20
2022-08-04T17:46:28.598Z,48.80
2022-08-04T17:49:09.048Z,64.47
2022-08-04T17:52:05.235Z,60.63
2022-08-04T17:54:36.566Z,94.13
2022-08-04T17:57:20.017Z,66.18
2022-08-04T18:02:39.064Z,81.82
2022-08-04T18:05:11.852Z,96.55
2022-08-04T18:08:39.101Z,101.90
2022-08-04T18:10:55.353Z,105.60
2022-08-04T18:13:27.402Z,86.00
2022-08-04T18:16:02.666Z,101.88
2022-08-04T18:18:29.870Z,108.22
2022-08-04T18:20:59.793Z,88.00
2022-08-04T18:26:02.058Z,120.40
2022-08-04T18:28:33.073Z,130.10
2022-08-04T18:31:00.733Z,160.80
2022-08-04T18:33:39.489Z,232.25
2022-08-04T18:36:34.313Z,237.38
2022-08-04T18:38:58.333Z,333.52
2022-08-04T18:41:27.167Z,310.95
2022-08-04T18:43:56.737Z,304.60
2022-08-04T18:46:26.904Z,326.23
2022-08-04T18:48:54.591Z,317.75
2022-08-04T18:51:24.938Z,361.17
2022-08-04T18:53:58.959Z,313.25
2022-08-04T18:56:32.896Z,307.92
2022-08-04T18:59:10.557Z,311.23
2022-08-04T19:02:12.225Z,340.13
2022-08-04T19:04:32.458Z,298.25
2022-08-04T19:07:28.890Z,292.35
2022-08-04T19:09:52.045Z,286.17
2022-08-04T19:12:26.569Z,266.70
2022-08-04T19:15:08.427Z,281.20
2022-08-04T19:17:54.197Z,336.57
2022-08-04T19:20:26.328Z,315.40
2022-08-04T19:24:29.484Z,319.60
2022-08-04T19:25:58.705Z,303.70
2022-08-04T19:28:29.818Z,366.40
2022-08-04T19:30:57.686Z,402.50
2022-08-04T19:33:25.368Z,357.38
2022-08-04T19:35:52.418Z,356.20
2022-08-04T19:38:20.638Z,334.50
2022-08-04T19:40:50.682Z,362.80
2022-08-04T19:43:20.886Z,378.20
2022-08-04T19:45:51.170Z,409.15
2022-08-04T19:48:19.982Z,357.40
2022-08-04T19:50:48.259Z,409.15
2022-08-04T19:53:19.562Z,374.35
2022-08-04T19:55:49.643Z,295.80
2022-08-04T19:58:16.870Z,308.98
2022-08-04T20:00:44.802Z,276.65
2022-08-04T20:03:20.275Z,277.38
2022-08-04T20:05:53.475Z,264.33
2022-08-04T20:08:24.168Z,250.35
2022-08-04T20:10:52.311Z,231.15
2022-08-04T20:13:25.514Z,235.05
2022-08-04T20:16:04.719Z,325.27
2022-08-04T20:18:36.061Z,317.80
2022-08-04T20:21:11.253Z,235.20
2022-08-04T20:23:47.749Z,272.75
2022-08-04T20:26:15.447Z,264.30
2022-08-04T20:28:42.250Z,272.38
2022-08-04T20:31:18.447Z,273.85
2022-08-04T20:33:49.090Z,261.73
2022-08-04T20:36:20.276Z,252.57
2022-08-04T20:38:51.914Z,270.88
2022-08-04T20:41:20.799Z,264.10
2022-08-04T20:43:49.756Z,201.15
2022-08-04T20:46:29.290Z,253.30
2022-08-04T20:48:56.338Z,194.98
2022-08-04T20:51:32.193Z,195.07
2022-08-04T20:54:01.974Z,165.48
2022-08-04T20:56:30.522Z,165.88
2022-08-04T20:58:59.437Z,186.73
2022-08-04T21:01:29.570Z,137.60
2022-08-04T21:04:27.483Z,115.75
2022-08-04T21:06:55.396Z,129.07
2022-08-04T21:09:26.531Z,131.30
2022-08-04T21:12:06.982Z,109.13
2022-08-04T21:14:34.580Z,99.10
2022-08-04T21:17:02.999Z,92.90
2022-08-04T21:19:31.700Z,97.82
2022-08-04T21:21:59.166Z,101.47
2022-08-04T21:24:26.571Z,97.45
2022-08-04T21:26:56.788Z,88.93
2022-08-04T21:29:34.541Z,96.80
2022-08-04T21:32:07.726Z,84.00
2022-08-04T21:34:39.618Z,86.53
2022-08-04T21:39:59.325Z,91.13
2022-08-04T21:42:42.506Z,75.82
2022-08-04T21:45:09.913Z,70.88
2022-08-04T21:47:46.561Z,74.85
2022-08-04T21:50:19.940Z,71.13
2022-08-04T21:52:47.644Z,73.32
2022-08-04T21:55:14.182Z,65.65
2022-08-04T21:57:42.014Z,59.85
2022-08-04T22:00:10.815Z,62.58
2022-08-04T22:02:44.820Z,56.45
2022-08-04T22:05:11.882Z,52.92
2022-08-04T22:07:50.539Z,49.63
2022-08-04T22:10:18.463Z,39.60
2022-08-04T22:12:52.109Z,47.00
2022-08-04T22:16:02.773Z,42.63
2022-08-04T22:18:05.568Z,32.30
2022-08-04T22:20:32.108Z,31.88
2022-08-04T22:23:15.349Z,25.83
2022-08-04T22:25:42.163Z,24.33
2022-08-04T22:28:11.624Z,22.05
2022-08-04T22:30:48.325Z,20.30
2022-08-04T22:33:18.921Z,18.75
2022-08-04T22:35:49.936Z,18.10
2022-08-04T22:38:36.978Z,14.20
2022-08-04T22:41:17.696Z,15.32
2022-08-04T22:43:45.986Z,13.40
2022-08-04T22:46:26.811Z,12.70
2022-08-04T22:48:54.405Z,12.23
2022-08-04T22:51:22.444Z,14.55
2022-08-04T22:53:50.201Z,13.10
2022-08-04T22:56:38.124Z,14.23
2022-08-04T22:59:04.815Z,10.70
2022-08-04T23:01:57.963Z,11.63
2022-08-04T23:04:17.911Z,14.02
2022-08-04T23:06:44.453Z,15.43
2022-08-04T23:09:15.993Z,15.27
2022-08-04T23:11:43.770Z,10.75
2022-08-04T23:14:10.536Z,10.88
2022-08-04T23:16:40.882Z,9.02
2022-08-04T23:19:12.159Z,13.68
2022-08-04T23:21:47.810Z,9.53
2022-08-04T23:24:29.761Z,9.23
2022-08-04T23:26:58.023Z,10.07
2022-08-04T23:29:25.186Z,10.10
2022-08-04T23:31:59.729Z,10.25
2022-08-04T23:34:29.179Z,9.93
2022-08-04T23:36:56.282Z,7.22
2022-08-04T23:39:25.886Z,8.52
2022-08-04T23:42:15.002Z,6.65
2022-08-04T23:44:47.354Z,7.70
2022-08-04T23:48:15.932Z,9.25
2022-08-04T23:50:00.626Z,6.45
2022-08-04T23:52:29.621Z,6.20
2022-08-04T23:55:00.691Z,6.10
2022-08-04T23:58:02.263Z,6.28
